sensor_id;sensor_type;location;lat;lon;timestamp;pressure;altitude;pressure_sealevel;temperature;humidity
62864;BME280;48954;59.950;11.014;2023-03-19T00:00:46;99589.54;;;-0.08;73.51
62864;BME280;48954;59.950;11.014;2023-03-19T00:03:28;99590.29;;;-0.08;73.52
62864;BME280;48954;59.950;11.014;2023-03-19T00:05:55;99594.88;;;-0.07;73.64
62864;BME280;48954;59.950;11.014;2023-03-19T00:08:35;99598.23;;;-0.07;73.63
62864;BME280;48954;59.950;11.014;2023-03-19T00:11:08;99596.55;;;-0.06;73.38
62864;BME280;48954;59.950;11.014;2023-03-19T00:13:34;99595.30;;;-0.06;73.48
62864;BME280;48954;59.950;11.014;2023-03-19T00:16:09;99596.54;;;-0.06;73.67
62864;BME280;48954;59.950;11.014;2023-03-19T00:18:52;99596.33;;;-0.06;73.84
62864;BME280;48954;59.950;11.014;2023-03-19T00:21:34;99594.28;;;-0.07;73.91
62864;BME280;48954;59.950;11.014;2023-03-19T00:24:16;99594.55;;;-0.06;74.02
62864;BME280;48954;59.950;11.014;2023-03-19T00:26:59;99595.52;;;-0.06;73.93
62864;BME280;48954;59.950;11.014;2023-03-19T00:29:40;99600.23;;;-0.07;73.83
62864;BME280;48954;59.950;11.014;2023-03-19T00:32:20;99599.90;;;-0.07;73.63
62864;BME280;48954;59.950;11.014;2023-03-19T00:35:01;99602.08;;;-0.08;73.82
62864;BME280;48954;59.950;11.014;2023-03-19T00:37:49;99602.75;;;-0.10;73.81
62864;BME280;48954;59.950;11.014;2023-03-19T00:40:44;99607.35;;;-0.10;74.10
62864;BME280;48954;59.950;11.014;2023-03-19T00:43:10;99607.09;;;-0.11;73.71
62864;BME280;48954;59.950;11.014;2023-03-19T00:45:37;99608.17;;;-0.11;73.80
62864;BME280;48954;59.950;11.014;2023-03-19T00:48:18;99601.56;;;-0.10;73.73
62864;BME280;48954;59.950;11.014;2023-03-19T00:51:07;99599.21;;;-0.12;73.91
62864;BME280;48954;59.950;11.014;2023-03-19T00:53:47;99606.55;;;-0.10;73.71
62864;BME280;48954;59.950;11.014;2023-03-19T00:56:28;99607.95;;;-0.10;74.06
62864;BME280;48954;59.950;11.014;2023-03-19T00:59:13;99613.03;;;-0.11;73.96
62864;BME280;48954;59.950;11.014;2023-03-19T01:01:54;99612.61;;;-0.11;74.09
62864;BME280;48954;59.950;11.014;2023-03-19T01:04:34;99609.00;;;-0.12;74.03
62864;BME280;48954;59.950;11.014;2023-03-19T01:07:15;99612.34;;;-0.13;73.93
62864;BME280;48954;59.950;11.014;2023-03-19T01:09:47;99611.09;;;-0.13;74.01
62864;BME280;48954;59.950;11.014;2023-03-19T01:12:28;99613.07;;;-0.13;74.11
62864;BME280;48954;59.950;11.014;2023-03-19T01:15:06;99612.20;;;-0.13;74.31
62864;BME280;48954;59.950;11.014;2023-03-19T01:17:46;99614.05;;;-0.13;74.36
62864;BME280;48954;59.950;11.014;2023-03-19T01:20:27;99613.00;;;-0.14;74.30
62864;BME280;48954;59.950;11.014;2023-03-19T01:22:58;99615.64;;;-0.14;74.40
62864;BME280;48954;59.950;11.014;2023-03-19T01:25:24;99609.95;;;-0.13;74.40
62864;BME280;48954;59.950;11.014;2023-03-19T01:27:51;99611.48;;;-0.12;73.96
62864;BME280;48954;59.950;11.014;2023-03-19T01:30:18;99613.95;;;-0.13;74.30
62864;BME280;48954;59.950;11.014;2023-03-19T01:32:59;99607.63;;;-0.13;74.37
62864;BME280;48954;59.950;11.014;2023-03-19T01:35:40;99605.04;;;-0.14;74.10
62864;BME280;48954;59.950;11.014;2023-03-19T01:38:23;99600.27;;;-0.16;73.93
62864;BME280;48954;59.950;11.014;2023-03-19T01:41:04;99605.86;;;-0.18;73.78
62864;BME280;48954;59.950;11.014;2023-03-19T01:43:45;99607.88;;;-0.19;74.02
62864;BME280;48954;59.950;11.014;2023-03-19T01:46:29;99609.77;;;-0.20;73.96
62864;BME280;48954;59.950;11.014;2023-03-19T01:49:10;99607.02;;;-0.21;73.99
62864;BME280;48954;59.950;11.014;2023-03-19T01:51:52;99601.42;;;-0.23;74.09
62864;BME280;48954;59.950;11.014;2023-03-19T01:54:43;99604.84;;;-0.24;73.95
62864;BME280;48954;59.950;11.014;2023-03-19T01:57:25;99599.98;;;-0.27;74.12
62864;BME280;48954;59.950;11.014;2023-03-19T01:59:57;99598.88;;;-0.30;74.13
62864;BME280;48954;59.950;11.014;2023-03-19T02:02:30;99600.59;;;-0.32;74.12
62864;BME280;48954;59.950;11.014;2023-03-19T02:05:12;99598.77;;;-0.33;74.00
62864;BME280;48954;59.950;11.014;2023-03-19T02:07:57;99592.41;;;-0.35;73.98
62864;BME280;48954;59.950;11.014;2023-03-19T02:10:39;99591.96;;;-0.38;74.05
62864;BME280;48954;59.950;11.014;2023-03-19T02:13:10;99595.58;;;-0.41;74.23
62864;BME280;48954;59.950;11.014;2023-03-19T02:15:51;99596.75;;;-0.44;74.39
62864;BME280;48954;59.950;11.014;2023-03-19T02:18:23;99602.50;;;-0.46;74.42
62864;BME280;48954;59.950;11.014;2023-03-19T02:21:10;99606.33;;;-0.50;74.46
62864;BME280;48954;59.950;11.014;2023-03-19T02:26:49;99608.16;;;-0.57;74.65
62864;BME280;48954;59.950;11.014;2023-03-19T02:29:30;99609.77;;;-0.56;74.76
62864;BME280;48954;59.950;11.014;2023-03-19T02:32:03;99610.95;;;-0.56;74.62
62864;BME280;48954;59.950;11.014;2023-03-19T02:34:43;99609.93;;;-0.56;74.70
62864;BME280;48954;59.950;11.014;2023-03-19T02:37:28;99604.75;;;-0.57;75.10
62864;BME280;48954;59.950;11.014;2023-03-19T02:40:33;99608.00;;;-0.57;74.92
62864;BME280;48954;59.950;11.014;2023-03-19T02:43:29;99606.14;;;-0.55;74.77
62864;BME280;48954;59.950;11.014;2023-03-19T02:46:11;99605.86;;;-0.54;74.91
62864;BME280;48954;59.950;11.014;2023-03-19T02:48:52;99609.98;;;-0.52;74.95
62864;BME280;48954;59.950;11.014;2023-03-19T02:51:32;99608.38;;;-0.49;74.89
62864;BME280;48954;59.950;11.014;2023-03-19T02:54:13;99609.66;;;-0.49;74.87
62864;BME280;48954;59.950;11.014;2023-03-19T02:56:54;99612.79;;;-0.48;74.78
62864;BME280;48954;59.950;11.014;2023-03-19T02:59:36;99614.89;;;-0.48;74.92
62864;BME280;48954;59.950;11.014;2023-03-19T03:02:13;99613.10;;;-0.47;74.95
62864;BME280;48954;59.950;11.014;2023-03-19T03:04:54;99615.35;;;-0.44;74.85
62864;BME280;48954;59.950;11.014;2023-03-19T03:07:36;99615.92;;;-0.43;74.73
62864;BME280;48954;59.950;11.014;2023-03-19T03:10:03;99612.02;;;-0.41;74.73
62864;BME280;48954;59.950;11.014;2023-03-19T03:12:40;99613.11;;;-0.39;74.76
62864;BME280;48954;59.950;11.014;2023-03-19T03:15:20;99610.87;;;-0.38;74.82
62864;BME280;48954;59.950;11.014;2023-03-19T03:17:48;99607.61;;;-0.37;74.90
62864;BME280;48954;59.950;11.014;2023-03-19T03:20:24;99603.45;;;-0.36;74.48
62864;BME280;48954;59.950;11.014;2023-03-19T03:23:10;99608.92;;;-0.33;74.75
62864;BME280;48954;59.950;11.014;2023-03-19T03:25:54;99604.96;;;-0.32;74.73
62864;BME280;48954;59.950;11.014;2023-03-19T03:28:35;99601.61;;;-0.31;74.57
62864;BME280;48954;59.950;11.014;2023-03-19T03:31:15;99601.19;;;-0.32;74.61
62864;BME280;48954;59.950;11.014;2023-03-19T03:33:50;99594.83;;;-0.34;74.50
62864;BME280;48954;59.950;11.014;2023-03-19T03:36:19;99594.58;;;-0.36;74.47
62864;BME280;48954;59.950;11.014;2023-03-19T03:38:49;99598.15;;;-0.36;74.37
62864;BME280;48954;59.950;11.014;2023-03-19T03:41:17;99596.75;;;-0.37;74.45
62864;BME280;48954;59.950;11.014;2023-03-19T03:43:43;99594.37;;;-0.37;74.49
62864;BME280;48954;59.950;11.014;2023-03-19T03:46:24;99595.34;;;-0.37;74.39
62864;BME280;48954;59.950;11.014;2023-03-19T03:49:04;99605.34;;;-0.37;74.33
62864;BME280;48954;59.950;11.014;2023-03-19T03:51:34;99607.81;;;-0.39;74.41
62864;BME280;48954;59.950;11.014;2023-03-19T03:54:16;99613.66;;;-0.37;74.59
62864;BME280;48954;59.950;11.014;2023-03-19T03:56:51;99608.35;;;-0.35;74.79
62864;BME280;48954;59.950;11.014;2023-03-19T03:59:18;99605.63;;;-0.33;74.59
62864;BME280;48954;59.950;11.014;2023-03-19T04:01:50;99605.44;;;-0.31;74.51
62864;BME280;48954;59.950;11.014;2023-03-19T04:04:16;99602.14;;;-0.30;74.41
62864;BME280;48954;59.950;11.014;2023-03-19T04:06:43;99595.81;;;-0.29;74.19
62864;BME280;48954;59.950;11.014;2023-03-19T04:09:09;99593.95;;;-0.29;74.22
62864;BME280;48954;59.950;11.014;2023-03-19T04:11:38;99593.89;;;-0.28;74.36
62864;BME280;48954;59.950;11.014;2023-03-19T04:14:14;99598.38;;;-0.28;74.12
62864;BME280;48954;59.950;11.014;2023-03-19T04:16:45;99596.92;;;-0.28;74.26
62864;BME280;48954;59.950;11.014;2023-03-19T04:19:12;99590.98;;;-0.29;74.46
62864;BME280;48954;59.950;11.014;2023-03-19T04:21:40;99590.70;;;-0.28;74.51
62864;BME280;48954;59.950;11.014;2023-03-19T04:24:06;99589.41;;;-0.28;74.31
62864;BME280;48954;59.950;11.014;2023-03-19T04:26:37;99589.09;;;-0.28;74.35
62864;BME280;48954;59.950;11.014;2023-03-19T04:29:04;99588.48;;;-0.28;74.25
62864;BME280;48954;59.950;11.014;2023-03-19T04:31:31;99586.98;;;-0.29;74.39
62864;BME280;48954;59.950;11.014;2023-03-19T04:33:57;99589.47;;;-0.28;74.38
62864;BME280;48954;59.950;11.014;2023-03-19T04:36:32;99589.35;;;-0.28;74.43
62864;BME280;48954;59.950;11.014;2023-03-19T04:38:59;99589.14;;;-0.28;74.20
62864;BME280;48954;59.950;11.014;2023-03-19T04:41:26;99588.26;;;-0.27;74.17
62864;BME280;48954;59.950;11.014;2023-03-19T04:43:53;99588.21;;;-0.27;74.60
62864;BME280;48954;59.950;11.014;2023-03-19T04:46:19;99588.76;;;-0.27;74.51
62864;BME280;48954;59.950;11.014;2023-03-19T04:48:46;99584.26;;;-0.26;74.32
62864;BME280;48954;59.950;11.014;2023-03-19T04:51:26;99584.02;;;-0.26;74.34
62864;BME280;48954;59.950;11.014;2023-03-19T04:53:53;99582.13;;;-0.26;74.35
62864;BME280;48954;59.950;11.014;2023-03-19T04:56:19;99579.13;;;-0.25;73.90
62864;BME280;48954;59.950;11.014;2023-03-19T04:58:46;99576.23;;;-0.28;74.36
62864;BME280;48954;59.950;11.014;2023-03-19T05:01:22;99575.55;;;-0.30;74.14
62864;BME280;48954;59.950;11.014;2023-03-19T05:03:49;99577.49;;;-0.31;74.40
62864;BME280;48954;59.950;11.014;2023-03-19T05:06:16;99571.77;;;-0.31;74.41
62864;BME280;48954;59.950;11.014;2023-03-19T05:08:44;99572.00;;;-0.32;74.34
62864;BME280;48954;59.950;11.014;2023-03-19T05:11:15;99574.02;;;-0.33;74.40
62864;BME280;48954;59.950;11.014;2023-03-19T05:13:41;99567.16;;;-0.34;74.49
62864;BME280;48954;59.950;11.014;2023-03-19T05:16:15;99574.34;;;-0.33;74.80
62864;BME280;48954;59.950;11.014;2023-03-19T05:18:43;99573.04;;;-0.33;74.58
62864;BME280;48954;59.950;11.014;2023-03-19T05:21:12;99570.06;;;-0.33;74.80
62864;BME280;48954;59.950;11.014;2023-03-19T05:23:49;99566.59;;;-0.32;74.45
62864;BME280;48954;59.950;11.014;2023-03-19T05:26:17;99570.10;;;-0.31;74.56
62864;BME280;48954;59.950;11.014;2023-03-19T05:28:45;99573.77;;;-0.30;74.59
62864;BME280;48954;59.950;11.014;2023-03-19T05:31:12;99570.98;;;-0.29;74.55
62864;BME280;48954;59.950;11.014;2023-03-19T05:33:42;99576.06;;;-0.28;74.62
62864;BME280;48954;59.950;11.014;2023-03-19T05:36:13;99573.50;;;-0.27;74.58
62864;BME280;48954;59.950;11.014;2023-03-19T05:38:39;99575.02;;;-0.25;74.35
62864;BME280;48954;59.950;11.014;2023-03-19T05:41:06;99576.26;;;-0.24;74.58
62864;BME280;48954;59.950;11.014;2023-03-19T05:43:32;99576.50;;;-0.23;74.53
62864;BME280;48954;59.950;11.014;2023-03-19T05:45:59;99582.11;;;-0.22;74.62
62864;BME280;48954;59.950;11.014;2023-03-19T05:48:25;99584.63;;;-0.20;74.63
62864;BME280;48954;59.950;11.014;2023-03-19T05:50:52;99589.98;;;-0.19;74.81
62864;BME280;48954;59.950;11.014;2023-03-19T05:53:33;99583.31;;;-0.18;74.44
62864;BME280;48954;59.950;11.014;2023-03-19T05:56:00;99586.64;;;-0.17;74.38
62864;BME280;48954;59.950;11.014;2023-03-19T05:58:27;99585.13;;;-0.16;74.39
62864;BME280;48954;59.950;11.014;2023-03-19T06:00:54;99589.88;;;-0.15;74.74
62864;BME280;48954;59.950;11.014;2023-03-19T06:03:38;99596.47;;;-0.15;74.45
62864;BME280;48954;59.950;11.014;2023-03-19T06:06:25;99596.52;;;-0.16;75.05
62864;BME280;48954;59.950;11.014;2023-03-19T06:09:06;99600.38;;;-0.16;74.88
62864;BME280;48954;59.950;11.014;2023-03-19T06:11:36;99603.13;;;-0.16;74.41
62864;BME280;48954;59.950;11.014;2023-03-19T06:14:14;99604.02;;;-0.14;74.76
62864;BME280;48954;59.950;11.014;2023-03-19T06:16:41;99601.55;;;-0.13;74.67
62864;BME280;48954;59.950;11.014;2023-03-19T06:19:23;99598.69;;;-0.09;74.79
62864;BME280;48954;59.950;11.014;2023-03-19T06:21:54;99602.40;;;-0.08;74.64
62864;BME280;48954;59.950;11.014;2023-03-19T06:24:21;99601.83;;;-0.05;74.67
62864;BME280;48954;59.950;11.014;2023-03-19T06:26:47;99609.90;;;-0.03;74.66
62864;BME280;48954;59.950;11.014;2023-03-19T06:29:24;99618.96;;;-0.01;74.46
62864;BME280;48954;59.950;11.014;2023-03-19T06:31:50;99618.65;;;0.02;74.79
62864;BME280;48954;59.950;11.014;2023-03-19T06:34:16;99622.77;;;0.04;74.27
62864;BME280;48954;59.950;11.014;2023-03-19T06:36:45;99622.17;;;0.05;74.64
62864;BME280;48954;59.950;11.014;2023-03-19T06:39:13;99627.98;;;0.08;74.39
62864;BME280;48954;59.950;11.014;2023-03-19T06:41:39;99626.05;;;0.10;74.57
62864;BME280;48954;59.950;11.014;2023-03-19T06:44:07;99625.63;;;0.13;74.62
62864;BME280;48954;59.950;11.014;2023-03-19T06:46:34;99627.14;;;0.16;74.46
62864;BME280;48954;59.950;11.014;2023-03-19T06:49:03;99625.00;;;0.18;74.41
62864;BME280;48954;59.950;11.014;2023-03-19T06:51:29;99628.32;;;0.21;74.57
62864;BME280;48954;59.950;11.014;2023-03-19T06:53:57;99627.44;;;0.23;74.55
62864;BME280;48954;59.950;11.014;2023-03-19T06:56:25;99625.16;;;0.22;74.67
62864;BME280;48954;59.950;11.014;2023-03-19T06:58:53;99623.35;;;0.25;74.70
62864;BME280;48954;59.950;11.014;2023-03-19T07:01:25;99620.83;;;0.28;74.53
62864;BME280;48954;59.950;11.014;2023-03-19T07:03:53;99620.42;;;0.31;74.50
62864;BME280;48954;59.950;11.014;2023-03-19T07:06:23;99622.08;;;0.32;74.55
62864;BME280;48954;59.950;11.014;2023-03-19T07:08:51;99619.25;;;0.33;74.37
62864;BME280;48954;59.950;11.014;2023-03-19T07:11:19;99618.00;;;0.34;74.46
62864;BME280;48954;59.950;11.014;2023-03-19T07:13:49;99618.20;;;0.35;74.24
62864;BME280;48954;59.950;11.014;2023-03-19T07:16:16;99618.62;;;0.35;74.34
62864;BME280;48954;59.950;11.014;2023-03-19T07:19:05;99615.00;;;0.35;74.36
62864;BME280;48954;59.950;11.014;2023-03-19T07:21:35;99617.17;;;0.35;74.31
62864;BME280;48954;59.950;11.014;2023-03-19T07:24:19;99613.04;;;0.37;74.68
62864;BME280;48954;59.950;11.014;2023-03-19T07:26:47;99613.76;;;0.35;74.30
62864;BME280;48954;59.950;11.014;2023-03-19T07:29:28;99607.52;;;0.33;74.80
62864;BME280;48954;59.950;11.014;2023-03-19T07:31:58;99601.39;;;0.34;74.89
62864;BME280;48954;59.950;11.014;2023-03-19T07:34:25;99601.96;;;0.36;74.93
62864;BME280;48954;59.950;11.014;2023-03-19T07:37:01;99599.67;;;0.39;74.86
62864;BME280;48954;59.950;11.014;2023-03-19T07:39:41;99602.48;;;0.40;75.01
62864;BME280;48954;59.950;11.014;2023-03-19T07:42:22;99599.95;;;0.42;74.85
62864;BME280;48954;59.950;11.014;2023-03-19T07:44:50;99602.77;;;0.41;75.00
62864;BME280;48954;59.950;11.014;2023-03-19T07:47:25;99602.27;;;0.42;74.90
62864;BME280;48954;59.950;11.014;2023-03-19T07:49:54;99594.16;;;0.42;75.24
62864;BME280;48954;59.950;11.014;2023-03-19T07:52:23;99601.38;;;0.41;75.25
62864;BME280;48954;59.950;11.014;2023-03-19T07:55:32;99598.19;;;0.38;75.48
62864;BME280;48954;59.950;11.014;2023-03-19T07:57:59;99605.41;;;0.29;75.52
62864;BME280;48954;59.950;11.014;2023-03-19T08:00:28;99618.31;;;0.24;75.42
62864;BME280;48954;59.950;11.014;2023-03-19T08:03:09;99628.46;;;0.18;75.81
62864;BME280;48954;59.950;11.014;2023-03-19T08:05:36;99632.33;;;0.13;75.55
62864;BME280;48954;59.950;11.014;2023-03-19T08:08:03;99625.17;;;0.12;76.10
62864;BME280;48954;59.950;11.014;2023-03-19T08:10:35;99625.22;;;0.14;76.26
62864;BME280;48954;59.950;11.014;2023-03-19T08:13:19;99627.31;;;0.19;76.41
62864;BME280;48954;59.950;11.014;2023-03-19T08:15:45;99629.79;;;0.24;76.50
62864;BME280;48954;59.950;11.014;2023-03-19T08:18:25;99633.71;;;0.28;76.33
62864;BME280;48954;59.950;11.014;2023-03-19T08:20:52;99629.52;;;0.30;76.29
62864;BME280;48954;59.950;11.014;2023-03-19T08:23:19;99629.80;;;0.34;76.37
62864;BME280;48954;59.950;11.014;2023-03-19T08:25:45;99629.94;;;0.39;76.45
62864;BME280;48954;59.950;11.014;2023-03-19T08:28:12;99632.54;;;0.45;76.40
62864;BME280;48954;59.950;11.014;2023-03-19T08:30:39;99633.73;;;0.49;76.54
62864;BME280;48954;59.950;11.014;2023-03-19T08:33:26;99632.96;;;0.54;76.41
62864;BME280;48954;59.950;11.014;2023-03-19T08:36:09;99636.74;;;0.59;76.53
62864;BME280;48954;59.950;11.014;2023-03-19T08:38:51;99635.18;;;0.62;76.24
62864;BME280;48954;59.950;11.014;2023-03-19T08:41:21;99629.92;;;0.62;76.21
62864;BME280;48954;59.950;11.014;2023-03-19T08:43:51;99625.46;;;0.61;76.28
62864;BME280;48954;59.950;11.014;2023-03-19T08:46:32;99620.95;;;0.59;76.14
62864;BME280;48954;59.950;11.014;2023-03-19T08:49:01;99621.63;;;0.64;76.37
62864;BME280;48954;59.950;11.014;2023-03-19T08:51:38;99625.06;;;0.71;76.49
62864;BME280;48954;59.950;11.014;2023-03-19T08:54:05;99624.83;;;0.78;76.67
62864;BME280;48954;59.950;11.014;2023-03-19T08:56:45;99628.11;;;0.86;76.59
62864;BME280;48954;59.950;11.014;2023-03-19T08:59:29;99618.02;;;0.95;76.45
62864;BME280;48954;59.950;11.014;2023-03-19T09:01:59;99609.71;;;1.02;76.46
62864;BME280;48954;59.950;11.014;2023-03-19T09:04:26;99603.57;;;1.08;76.44
62864;BME280;48954;59.950;11.014;2023-03-19T09:06:54;99605.80;;;1.15;76.54
62864;BME280;48954;59.950;11.014;2023-03-19T09:09:37;99602.35;;;1.19;76.26
62864;BME280;48954;59.950;11.014;2023-03-19T09:12:18;99610.41;;;1.19;76.07
62864;BME280;48954;59.950;11.014;2023-03-19T09:14:50;99608.75;;;1.21;76.35
62864;BME280;48954;59.950;11.014;2023-03-19T09:17:18;99602.63;;;1.25;76.30
62864;BME280;48954;59.950;11.014;2023-03-19T09:19:47;99591.14;;;1.29;76.19
62864;BME280;48954;59.950;11.014;2023-03-19T09:22:28;99588.55;;;1.34;76.29
62864;BME280;48954;59.950;11.014;2023-03-19T09:25:23;99580.23;;;1.41;76.31
62864;BME280;48954;59.950;11.014;2023-03-19T09:28:05;99570.84;;;1.49;76.18
62864;BME280;48954;59.950;11.014;2023-03-19T09:30:47;99580.02;;;1.58;76.10
62864;BME280;48954;59.950;11.014;2023-03-19T09:33:20;99578.65;;;1.68;76.03
62864;BME280;48954;59.950;11.014;2023-03-19T09:36:00;99578.94;;;1.78;75.78
62864;BME280;48954;59.950;11.014;2023-03-19T09:38:29;99580.33;;;1.84;75.80
62864;BME280;48954;59.950;11.014;2023-03-19T09:41:28;99583.50;;;1.97;75.70
62864;BME280;48954;59.950;11.014;2023-03-19T09:44:03;99578.59;;;2.14;75.43
62864;BME280;48954;59.950;11.014;2023-03-19T09:46:45;99579.02;;;2.24;75.34
62864;BME280;48954;59.950;11.014;2023-03-19T09:49:30;99578.67;;;2.29;75.12
62864;BME280;48954;59.950;11.014;2023-03-19T09:54:48;99579.92;;;2.31;74.82
62864;BME280;48954;59.950;11.014;2023-03-19T09:57:18;99581.99;;;2.28;74.87
62864;BME280;48954;59.950;11.014;2023-03-19T09:59:58;99577.34;;;2.30;75.00
62864;BME280;48954;59.950;11.014;2023-03-19T10:02:38;99579.70;;;2.33;75.15
62864;BME280;48954;59.950;11.014;2023-03-19T10:05:24;99575.50;;;2.45;75.14
62864;BME280;48954;59.950;11.014;2023-03-19T10:08:33;99576.98;;;2.48;74.81
62864;BME280;48954;59.950;11.014;2023-03-19T10:14:02;99577.61;;;2.67;74.67
62864;BME280;48954;59.950;11.014;2023-03-19T10:16:48;99584.10;;;2.63;74.69
62864;BME280;48954;59.950;11.014;2023-03-19T10:19:23;99581.81;;;2.61;74.64
62864;BME280;48954;59.950;11.014;2023-03-19T10:21:58;99581.44;;;2.60;74.42
62864;BME280;48954;59.950;11.014;2023-03-19T10:24:39;99585.36;;;2.63;74.79
62864;BME280;48954;59.950;11.014;2023-03-19T10:27:18;99585.23;;;2.61;74.85
62864;BME280;48954;59.950;11.014;2023-03-19T10:29:52;99584.40;;;2.60;74.79
62864;BME280;48954;59.950;11.014;2023-03-19T10:32:40;99585.02;;;2.65;75.07
62864;BME280;48954;59.950;11.014;2023-03-19T10:35:31;99583.66;;;2.68;75.02
62864;BME280;48954;59.950;11.014;2023-03-19T10:38:26;99581.85;;;2.64;74.94
62864;BME280;48954;59.950;11.014;2023-03-19T10:41:03;99580.38;;;2.66;75.00
62864;BME280;48954;59.950;11.014;2023-03-19T10:43:33;99585.70;;;2.65;74.81
62864;BME280;48954;59.950;11.014;2023-03-19T10:46:11;99581.54;;;2.60;75.17
62864;BME280;48954;59.950;11.014;2023-03-19T10:48:43;99574.77;;;2.60;75.08
62864;BME280;48954;59.950;11.014;2023-03-19T10:51:16;99567.23;;;2.64;75.26
62864;BME280;48954;59.950;11.014;2023-03-19T10:53:46;99563.13;;;2.72;75.23
62864;BME280;48954;59.950;11.014;2023-03-19T10:56:28;99562.89;;;2.81;75.50
62864;BME280;48954;59.950;11.014;2023-03-19T10:59:03;99564.95;;;2.92;75.51
62864;BME280;48954;59.950;11.014;2023-03-19T11:01:38;99565.73;;;2.98;75.35
62864;BME280;48954;59.950;11.014;2023-03-19T11:04:25;99568.30;;;3.00;75.34
62864;BME280;48954;59.950;11.014;2023-03-19T11:07:23;99570.51;;;3.02;75.50
62864;BME280;48954;59.950;11.014;2023-03-19T11:09:56;99569.48;;;3.02;75.38
62864;BME280;48954;59.950;11.014;2023-03-19T11:12:51;99569.38;;;3.04;75.57
62864;BME280;48954;59.950;11.014;2023-03-19T11:15:58;99563.60;;;3.01;75.48
62864;BME280;48954;59.950;11.014;2023-03-19T11:18:49;99563.98;;;2.92;75.19
62864;BME280;48954;59.950;11.014;2023-03-19T11:21:28;99567.00;;;2.89;75.69
62864;BME280;48954;59.950;11.014;2023-03-19T11:23:59;99562.27;;;2.87;75.77
62864;BME280;48954;59.950;11.014;2023-03-19T11:26:59;99555.56;;;2.85;75.71
62864;BME280;48954;59.950;11.014;2023-03-19T11:30:24;99558.71;;;2.81;75.64
62864;BME280;48954;59.950;11.014;2023-03-19T11:33:24;99560.01;;;2.79;75.83
62864;BME280;48954;59.950;11.014;2023-03-19T11:39:27;99554.40;;;2.82;76.22
62864;BME280;48954;59.950;11.014;2023-03-19T11:44:56;99549.20;;;2.85;76.17
62864;BME280;48954;59.950;11.014;2023-03-19T11:50:25;99544.91;;;2.86;76.50
62864;BME280;48954;59.950;11.014;2023-03-19T11:53:13;99543.21;;;2.92;76.55
62864;BME280;48954;59.950;11.014;2023-03-19T12:05:13;99541.16;;;2.81;76.57
62864;BME280;48954;59.950;11.014;2023-03-19T12:11:42;99530.50;;;2.85;77.13
62864;BME280;48954;59.950;11.014;2023-03-19T12:14:40;99528.13;;;2.91;77.18
62864;BME280;48954;59.950;11.014;2023-03-19T12:23:08;99525.07;;;2.87;77.01
62864;BME280;48954;59.950;11.014;2023-03-19T12:25:51;99522.86;;;2.86;77.06
62864;BME280;48954;59.950;11.014;2023-03-19T12:28:33;99512.86;;;2.86;77.24
62864;BME280;48954;59.950;11.014;2023-03-19T12:34:18;99508.13;;;2.93;77.60
62864;BME280;48954;59.950;11.014;2023-03-19T12:43:22;99504.96;;;3.03;77.68
62864;BME280;48954;59.950;11.014;2023-03-19T12:45:56;99502.30;;;3.04;77.65
62864;BME280;48954;59.950;11.014;2023-03-19T12:48:58;99490.96;;;3.04;77.67
62864;BME280;48954;59.950;11.014;2023-03-19T12:51:33;99489.33;;;3.08;77.85
62864;BME280;48954;59.950;11.014;2023-03-19T12:54:20;99482.70;;;3.13;78.03
62864;BME280;48954;59.950;11.014;2023-03-19T12:57:07;99481.67;;;3.19;78.10
62864;BME280;48954;59.950;11.014;2023-03-19T13:14:57;99463.59;;;3.80;79.10
62864;BME280;48954;59.950;11.014;2023-03-19T13:48:52;99435.98;;;4.17;80.97
62864;BME280;48954;59.950;11.014;2023-03-19T13:51:27;99436.66;;;4.18;80.98
62864;BME280;48954;59.950;11.014;2023-03-19T13:57:04;99442.67;;;4.15;81.15
62864;BME280;48954;59.950;11.014;2023-03-19T13:59:56;99440.73;;;4.13;81.27
62864;BME280;48954;59.950;11.014;2023-03-19T15:43:10;99337.10;;;4.21;83.37
62864;BME280;48954;59.950;11.014;2023-03-19T15:49:10;99333.30;;;4.18;83.36
62864;BME280;48954;59.950;11.014;2023-03-19T15:52:11;99330.67;;;4.14;83.40
62864;BME280;48954;59.950;11.014;2023-03-19T15:55:19;99330.14;;;4.12;83.61
62864;BME280;48954;59.950;11.014;2023-03-19T18:32:08;99285.51;;;3.49;86.70
62864;BME280;48954;59.950;11.014;2023-03-19T18:34:40;99279.80;;;3.50;86.77
62864;BME280;48954;59.950;11.014;2023-03-19T18:38:12;99280.05;;;3.50;86.71
62864;BME280;48954;59.950;11.014;2023-03-19T18:40:56;99284.57;;;3.50;86.77
62864;BME280;48954;59.950;11.014;2023-03-19T18:54:42;99269.98;;;3.52;86.70
62864;BME280;48954;59.950;11.014;2023-03-19T18:57:24;99269.59;;;3.51;86.77
62864;BME280;48954;59.950;11.014;2023-03-19T19:03:43;99263.60;;;3.49;86.77
62864;BME280;48954;59.950;11.014;2023-03-19T19:06:48;99257.91;;;3.46;86.90
62864;BME280;48954;59.950;11.014;2023-03-19T19:09:58;99254.20;;;3.45;86.89
62864;BME280;48954;59.950;11.014;2023-03-19T19:12:42;99252.98;;;3.44;86.91
62864;BME280;48954;59.950;11.014;2023-03-19T19:18:29;99246.46;;;3.42;87.05
62864;BME280;48954;59.950;11.014;2023-03-19T19:21:34;99240.64;;;3.42;87.02
62864;BME280;48954;59.950;11.014;2023-03-19T19:24:16;99239.59;;;3.41;87.04
62864;BME280;48954;59.950;11.014;2023-03-19T19:26:59;99236.13;;;3.41;87.17
62864;BME280;48954;59.950;11.014;2023-03-19T19:32:08;99234.66;;;3.39;87.14
62864;BME280;48954;59.950;11.014;2023-03-19T19:34:44;99235.36;;;3.41;87.14
62864;BME280;48954;59.950;11.014;2023-03-19T19:37:26;99230.08;;;3.39;87.16
62864;BME280;48954;59.950;11.014;2023-03-19T19:40:11;99231.52;;;3.38;87.20
62864;BME280;48954;59.950;11.014;2023-03-19T19:42:54;99230.44;;;3.38;87.23
62864;BME280;48954;59.950;11.014;2023-03-19T19:45:43;99232.02;;;3.39;87.39
62864;BME280;48954;59.950;11.014;2023-03-19T19:48:21;99230.51;;;3.38;87.34
62864;BME280;48954;59.950;11.014;2023-03-19T19:51:02;99227.56;;;3.38;87.50
62864;BME280;48954;59.950;11.014;2023-03-19T19:53:29;99227.11;;;3.39;87.57
62864;BME280;48954;59.950;11.014;2023-03-19T19:56:40;99225.70;;;3.39;87.57
62864;BME280;48954;59.950;11.014;2023-03-19T19:59:34;99224.98;;;3.38;87.69
62864;BME280;48954;59.950;11.014;2023-03-19T20:02:35;99218.91;;;3.37;87.67